createdAt,value
2022-10-17T00:00:48.240Z,101494.50
2022-10-17T00:03:15.094Z,101498.09
2022-10-17T00:05:44.265Z,101494.50
2022-10-17T00:08:12.326Z,101491.78
2022-10-17T00:10:40.035Z,101496.22
2022-10-17T00:13:07.663Z,101498.94
2022-10-17T00:15:34.542Z,101496.22
2022-10-17T00:18:01.413Z,101503.38
2022-10-17T00:20:28.107Z,101499.81
2022-10-17T00:22:54.557Z,101497.94
2022-10-17T00:25:22.540Z,101493.34
2022-10-17T00:27:48.986Z,101492.34
2022-10-17T00:30:16.256Z,101484.91
2022-10-17T00:32:42.825Z,101487.38
2022-10-17T00:35:10.698Z,101483.66
2022-10-17T00:37:37.260Z,101487.22
2022-10-17T00:40:05.205Z,101493.53
2022-10-17T00:42:31.705Z,101495.38
2022-10-17T00:45:20.853Z,101486.47
2022-10-17T00:48:00.477Z,101480.94
2022-10-17T00:50:28.339Z,101469.19
2022-10-17T00:53:01.259Z,101471.91
2022-10-17T00:55:32.122Z,101481.03
2022-10-17T00:58:02.615Z,101463.84
2022-10-17T01:00:29.114Z,101466.47
2022-10-17T01:02:55.958Z,101468.19
2022-10-17T01:05:22.563Z,101469.19
2022-10-17T01:07:52.576Z,101477.34
2022-10-17T01:10:20.641Z,101478.19
2022-10-17T01:13:02.357Z,101473.63
2022-10-17T01:15:44.214Z,101469.91
2022-10-17T01:18:29.207Z,101462.63
2022-10-17T01:21:11.207Z,101468.91
2022-10-17T01:24:21.181Z,101464.47
2022-10-17T01:26:56.833Z,101466.19
2022-10-17T01:29:47.649Z,101466.31
2022-10-17T01:32:19.811Z,101473.38
2022-10-17T01:34:52.459Z,101469.78
2022-10-17T01:37:32.683Z,101462.47
2022-10-17T01:40:37.274Z,101465.06
2022-10-17T01:43:13.685Z,101460.19
2022-10-17T01:46:02.628Z,101454.59
2022-10-17T01:48:38.746Z,101452.44
2022-10-17T01:51:13.574Z,101452.28
2022-10-17T01:53:47.159Z,101438.53
2022-10-17T01:56:16.008Z,101452.00
2022-10-17T01:58:51.496Z,101439.94
2022-10-17T02:01:19.764Z,101437.94
2022-10-17T02:03:48.631Z,101434.06
2022-10-17T02:06:15.142Z,101441.06
2022-10-17T02:08:47.276Z,101439.06
2022-10-17T02:11:18.123Z,101440.78
2022-10-17T02:14:15.757Z,101434.31
2022-10-17T02:16:57.123Z,101440.47
2022-10-17T02:19:29.506Z,101452.06
2022-10-17T02:22:16.643Z,101447.50
2022-10-17T02:24:50.009Z,101446.47
2022-10-17T02:27:33.531Z,101438.31
2022-10-17T02:30:14.201Z,101434.75
2022-10-17T02:32:55.654Z,101438.47
2022-10-17T02:35:25.476Z,101437.59
2022-10-17T02:37:53.368Z,101435.59
2022-10-17T02:40:24.271Z,101431.88
2022-10-17T02:42:54.676Z,101431.72
2022-10-17T02:45:25.262Z,101444.31
2022-10-17T02:48:04.126Z,101437.00
2022-10-17T02:50:44.559Z,101436.16
2022-10-17T02:53:28.538Z,101437.88
2022-10-17T02:55:59.860Z,101433.13
2022-10-17T02:58:32.078Z,101440.28
2022-10-17T03:00:59.349Z,101443.00
2022-10-17T03:03:30.439Z,101435.69
2022-10-17T03:06:01.934Z,101442.72
2022-10-17T03:08:28.532Z,101433.69
2022-10-17T03:10:56.217Z,101434.41
2022-10-17T03:13:23.229Z,101437.81
2022-10-17T03:15:50.175Z,101438.69
2022-10-17T03:18:17.067Z,101438.69
2022-10-17T03:20:44.535Z,101435.97
2022-10-17T03:23:11.249Z,101437.81
2022-10-17T03:25:39.142Z,101440.41
2022-10-17T03:28:06.161Z,101438.38
2022-10-17T03:30:33.608Z,101447.13
2022-10-17T03:33:00.954Z,101443.38
2022-10-17T03:35:28.782Z,101450.53
2022-10-17T03:37:56.475Z,101445.09
2022-10-17T03:40:25.374Z,101452.09
2022-10-17T03:42:52.714Z,101441.91
2022-10-17T03:45:23.403Z,101440.91
2022-10-17T03:47:51.206Z,101448.78
2022-10-17T03:50:17.782Z,101452.38
2022-10-17T03:52:48.469Z,101442.31
2022-10-17T03:55:17.102Z,101445.91
2022-10-17T03:57:45.584Z,101443.19
2022-10-17T04:00:13.617Z,101438.75
2022-10-17T04:02:49.746Z,101443.03
2022-10-17T04:05:18.722Z,101439.44
2022-10-17T04:07:45.790Z,101434.88
2022-10-17T04:10:13.698Z,101430.16
2022-10-17T04:12:40.275Z,101433.03
2022-10-17T04:15:07.360Z,101442.91
2022-10-17T04:17:38.052Z,101442.75
2022-10-17T04:20:05.824Z,101443.63
2022-10-17T04:22:32.494Z,101432.41
2022-10-17T04:25:02.307Z,101437.88
2022-10-17T04:27:38.862Z,101438.72
2022-10-17T04:30:06.790Z,101438.56
2022-10-17T04:32:38.508Z,101452.03
2022-10-17T04:35:15.890Z,101463.63
2022-10-17T04:37:47.280Z,101466.91
2022-10-17T04:40:18.156Z,101473.78
2022-10-17T04:42:45.318Z,101459.88
2022-10-17T04:45:19.116Z,101464.03
2022-10-17T04:47:47.420Z,101474.78
2022-10-17T04:50:14.015Z,101476.31
2022-10-17T04:52:40.772Z,101469.88
2022-10-17T04:55:08.868Z,101476.19
2022-10-17T04:57:35.854Z,101483.34
2022-10-17T05:00:15.266Z,101477.03
2022-10-17T05:03:03.772Z,101479.59
2022-10-17T05:05:30.860Z,101485.91
2022-10-17T05:07:57.956Z,101484.03
2022-10-17T05:10:29.882Z,101486.63
2022-10-17T05:12:57.784Z,101490.03
2022-10-17T05:15:29.123Z,101489.03
2022-10-17T05:17:56.970Z,101488.88
2022-10-17T05:20:25.577Z,101497.91
2022-10-17T05:22:52.379Z,101499.47
2022-10-17T05:25:22.053Z,101495.03
2022-10-17T05:27:49.478Z,101491.31
2022-10-17T05:30:17.745Z,101505.78
2022-10-17T05:32:44.597Z,101503.22
2022-10-17T05:35:15.541Z,101503.38
2022-10-17T05:37:42.402Z,101511.53
2022-10-17T05:40:10.200Z,101514.28
2022-10-17T05:42:37.065Z,101505.25
2022-10-17T05:45:04.139Z,101511.69
2022-10-17T05:47:31.153Z,101522.59
2022-10-17T05:49:58.534Z,101522.59
2022-10-17T05:52:31.643Z,101527.91
2022-10-17T05:55:12.668Z,101520.59
2022-10-17T05:57:39.801Z,101525.19
2022-10-17T06:00:11.110Z,101526.88
2022-10-17T06:02:48.916Z,101530.47
2022-10-17T06:05:19.383Z,101537.78
2022-10-17T06:07:46.761Z,101532.34
2022-10-17T06:10:16.221Z,101532.34
2022-10-17T06:12:45.717Z,101534.22
2022-10-17T06:15:15.365Z,101534.22
2022-10-17T06:17:45.459Z,101533.50
2022-10-17T06:20:11.946Z,101528.91
2022-10-17T06:22:38.505Z,101540.66
2022-10-17T06:25:12.348Z,101546.97
2022-10-17T06:27:38.855Z,101543.25
2022-10-17T06:30:05.887Z,101549.41
2022-10-17T06:32:32.615Z,101549.25
2022-10-17T06:34:59.442Z,101559.84
2022-10-17T06:37:35.403Z,101548.63
2022-10-17T06:40:07.060Z,101556.38
2022-10-17T06:42:34.523Z,101551.75
2022-10-17T06:45:13.638Z,101547.03
2022-10-17T06:47:58.500Z,101544.13
2022-10-17T06:50:41.086Z,101550.31
2022-10-17T06:53:13.653Z,101552.72
2022-10-17T06:56:04.694Z,101551.56
2022-10-17T06:58:44.293Z,101561.28
2022-10-17T07:01:23.468Z,101554.69
2022-10-17T07:03:58.081Z,101557.13
2022-10-17T07:06:24.767Z,101566.00
2022-10-17T07:08:52.454Z,101569.28
2022-10-17T07:11:21.032Z,101565.41
2022-10-17T07:13:54.367Z,101569.69
2022-10-17T07:16:22.205Z,101573.66
2022-10-17T07:18:55.897Z,101575.06
2022-10-17T07:21:22.675Z,101571.03
2022-10-17T07:23:49.168Z,101570.72
2022-10-17T07:26:17.109Z,101574.88
2022-10-17T07:28:45.307Z,101580.19
2022-10-17T07:31:45.590Z,101586.72
2022-10-17T07:34:16.729Z,101590.31
2022-10-17T07:36:44.546Z,101599.06
2022-10-17T07:39:13.377Z,101602.63
2022-10-17T07:41:40.375Z,101603.34
2022-10-17T07:44:12.093Z,101614.09
2022-10-17T07:46:45.719Z,101620.09
2022-10-17T07:49:12.318Z,101627.13
2022-10-17T07:51:40.632Z,101627.84
2022-10-17T07:54:08.342Z,101635.88
2022-10-17T07:56:34.821Z,101645.78
2022-10-17T07:59:03.819Z,101661.84
2022-10-17T08:01:33.174Z,101674.47
2022-10-17T08:04:04.208Z,101687.25
2022-10-17T08:06:30.738Z,101687.09
2022-10-17T08:08:58.454Z,101699.03
2022-10-17T08:11:25.385Z,101705.34
2022-10-17T08:14:10.622Z,101720.88
2022-10-17T08:16:37.246Z,101715.41
2022-10-17T08:19:04.696Z,101717.28
2022-10-17T08:21:31.334Z,101718.16
2022-10-17T08:23:59.326Z,101716.13
2022-10-17T08:26:25.763Z,101724.16
2022-10-17T08:28:52.328Z,101726.59
2022-10-17T08:31:20.338Z,101737.22
2022-10-17T08:33:48.267Z,101735.03
2022-10-17T08:36:17.705Z,101749.41
2022-10-17T08:38:46.964Z,101767.34
2022-10-17T08:41:31.321Z,101760.00
2022-10-17T08:44:49.445Z,101771.63
2022-10-17T08:47:22.219Z,101771.34
2022-10-17T08:49:55.717Z,101770.31
2022-10-17T08:52:38.027Z,101772.75
2022-10-17T08:57:48.190Z,101771.41
2022-10-17T09:00:20.758Z,101775.00
2022-10-17T09:03:09.218Z,101778.59
2022-10-17T09:05:46.183Z,101779.31
2022-10-17T09:08:22.424Z,101787.34
2022-10-17T09:11:07.749Z,101782.59
2022-10-17T09:14:16.505Z,101776.97
2022-10-17T09:16:54.758Z,101770.34
2022-10-17T09:19:41.441Z,101787.44
2022-10-17T09:22:17.302Z,101779.06
2022-10-17T09:24:53.066Z,101784.22
2022-10-17T09:27:34.709Z,101782.34
2022-10-17T09:30:44.080Z,101793.16
2022-10-17T09:33:23.193Z,101791.13
2022-10-17T09:36:00.704Z,101840.31
2022-10-17T09:38:38.138Z,101869.66
2022-10-17T09:41:39.086Z,101903.44
2022-10-17T09:44:24.531Z,101782.50
2022-10-17T09:47:03.066Z,101787.59
2022-10-17T09:49:34.348Z,101772.53
2022-10-17T09:52:03.132Z,101763.63
2022-10-17T09:54:42.334Z,101762.06
2022-10-17T09:57:11.118Z,101778.44
2022-10-17T09:59:47.594Z,101784.91
2022-10-17T10:02:23.485Z,101804.03
2022-10-17T10:05:05.946Z,101811.94
2022-10-17T10:07:36.187Z,101812.63
2022-10-17T10:10:06.330Z,101826.84
2022-10-17T10:12:35.758Z,101833.72
2022-10-17T10:15:32.679Z,101836.13
2022-10-17T10:17:59.382Z,101809.25
2022-10-17T10:20:37.375Z,101800.91
2022-10-17T10:23:13.306Z,101802.75
2022-10-17T10:25:53.865Z,101819.88
2022-10-17T10:28:23.440Z,101828.75
2022-10-17T10:30:52.225Z,101821.59
2022-10-17T10:33:21.882Z,101833.69
2022-10-17T10:35:57.654Z,101835.56
2022-10-17T10:38:24.474Z,101840.16
2022-10-17T10:41:11.710Z,101848.34
2022-10-17T10:43:42.165Z,101848.91
2022-10-17T10:46:21.406Z,101855.06
2022-10-17T10:48:50.673Z,101848.59
2022-10-17T10:51:22.794Z,101852.03
2022-10-17T10:54:23.101Z,101852.59
2022-10-17T10:56:53.570Z,101854.16
2022-10-17T10:59:28.723Z,101868.66
2022-10-17T11:02:03.087Z,101870.38
2022-10-17T11:04:52.446Z,101878.13
2022-10-17T11:07:32.466Z,101882.41
2022-10-17T11:10:12.453Z,101898.34
2022-10-17T11:12:46.394Z,101888.84
2022-10-17T11:15:31.183Z,101886.69
2022-10-17T11:18:05.216Z,101895.44
2022-10-17T11:20:47.586Z,101896.13
2022-10-17T11:23:21.447Z,101908.63
2022-10-17T11:25:54.488Z,101913.78
2022-10-17T11:28:24.669Z,101916.22
2022-10-17T11:30:57.262Z,101918.63
2022-10-17T11:33:46.630Z,101933.00
2022-10-17T11:36:16.953Z,101938.31
2022-10-17T11:39:15.099Z,101935.59
2022-10-17T11:41:43.097Z,101938.00
2022-10-17T11:44:26.848Z,101943.47
2022-10-17T11:47:04.499Z,101946.91
2022-10-17T11:49:40.233Z,101945.91
2022-10-17T11:52:55.273Z,101948.63
2022-10-17T11:55:28.125Z,101943.16
2022-10-17T11:58:00.298Z,101942.47
2022-10-17T12:00:51.635Z,101942.63
2022-10-17T12:03:27.103Z,101944.34
2022-10-17T12:06:05.645Z,101946.22
2022-10-17T12:08:41.477Z,101949.97
2022-10-17T12:11:27.393Z,101947.38
2022-10-17T12:13:57.127Z,101950.97
2022-10-17T12:16:23.858Z,101946.53
2022-10-17T12:19:02.306Z,101953.88
2022-10-17T12:21:49.001Z,101959.34
2022-10-17T12:25:00.088Z,101959.66
2022-10-17T12:27:37.153Z,101958.78
2022-10-17T12:30:13.415Z,101959.09
2022-10-17T12:33:05.661Z,101966.44
2022-10-17T12:35:35.847Z,101960.81
2022-10-17T12:38:23.214Z,101965.13
2022-10-17T12:40:51.557Z,101960.19
2022-10-17T12:43:17.966Z,101972.84
2022-10-17T12:45:49.513Z,101962.47
2022-10-17T12:48:34.064Z,101968.63
2022-10-17T12:51:34.745Z,101970.66
2022-10-17T12:54:16.728Z,101963.31
2022-10-17T12:56:48.997Z,101969.19
2022-10-17T12:59:24.117Z,101969.88
2022-10-17T13:01:55.427Z,101975.75
2022-10-17T13:04:26.863Z,101976.19
2022-10-17T13:06:56.557Z,101982.91
2022-10-17T13:09:38.654Z,101989.06
2022-10-17T13:12:11.401Z,101988.91
2022-10-17T13:14:40.822Z,101987.34
2022-10-17T13:17:20.585Z,101988.69
2022-10-17T13:19:47.092Z,101990.72
2022-10-17T13:22:26.339Z,101994.31
2022-10-17T13:25:07.485Z,101992.44
2022-10-17T13:27:35.865Z,101997.03
2022-10-17T13:30:31.891Z,102004.38
2022-10-17T13:33:00.444Z,102010.72
2022-10-17T13:35:58.961Z,102016.19
2022-10-17T13:38:32.086Z,102022.38
2022-10-17T13:41:10.821Z,102024.25
2022-10-17T13:43:43.786Z,102029.72
2022-10-17T13:46:36.686Z,102031.59
2022-10-17T13:49:25.738Z,102037.94
2022-10-17T13:51:56.258Z,102035.34
2022-10-17T13:54:37.274Z,102044.41
2022-10-17T13:57:05.586Z,102047.16
2022-10-17T13:59:40.893Z,102047.16
2022-10-17T14:02:13.619Z,102044.41
2022-10-17T14:05:04.079Z,102045.81
2022-10-17T14:07:58.284Z,102053.47
2022-10-17T14:10:36.906Z,102051.75
2022-10-17T14:13:06.223Z,102062.00
2022-10-17T14:15:34.986Z,102059.53
2022-10-17T14:18:07.710Z,102064.47
2022-10-17T14:23:34.516Z,102085.47
2022-10-17T14:26:10.873Z,102083.06
2022-10-17T14:28:38.138Z,102086.25
2022-10-17T14:31:15.214Z,102097.66
2022-10-17T14:33:50.588Z,102106.84
2022-10-17T14:36:41.982Z,102109.75
2022-10-17T14:39:22.219Z,102110.06
2022-10-17T14:41:50.511Z,102114.50
2022-10-17T14:44:33.457Z,102119.13
2022-10-17T14:47:30.773Z,102119.66
2022-10-17T14:50:22.777Z,102116.63
2022-10-17T14:53:11.146Z,102116.31
2022-10-17T14:55:54.206Z,102116.19
2022-10-17T14:58:30.716Z,102117.19
2022-10-17T15:00:58.890Z,102112.72
2022-10-17T15:03:25.835Z,102110.00
2022-10-17T15:05:54.818Z,102108.13
2022-10-17T15:08:23.764Z,102114.47
2022-10-17T15:10:51.382Z,102108.84
2022-10-17T15:13:39.939Z,102109.69
2022-10-17T15:16:34.701Z,102105.09
2022-10-17T15:19:01.731Z,102106.66
2022-10-17T15:21:47.176Z,102112.13
2022-10-17T15:24:16.276Z,102106.66
2022-10-17T15:26:42.918Z,102109.09
2022-10-17T15:29:16.595Z,102107.50
2022-10-17T15:31:43.235Z,102113.00
2022-10-17T15:34:34.873Z,102115.88
2022-10-17T15:37:01.688Z,102128.53
2022-10-17T15:39:28.327Z,102133.16
2022-10-17T15:41:54.826Z,102144.94
2022-10-17T15:44:23.172Z,102149.41
2022-10-17T15:46:56.201Z,102153.00
2022-10-17T15:49:22.894Z,102168.41
2022-10-17T15:51:55.104Z,102165.09
2022-10-17T15:54:26.874Z,102168.31
2022-10-17T15:56:55.780Z,102176.66
2022-10-17T15:59:30.307Z,102182.97
2022-10-17T16:01:56.866Z,102172.91
2022-10-17T16:04:30.750Z,102170.31
2022-10-17T16:06:57.349Z,102170.31
2022-10-17T16:09:23.827Z,102170.47
2022-10-17T16:11:50.515Z,102181.41
2022-10-17T16:14:21.413Z,102185.31
2022-10-17T16:16:48.014Z,102190.22
2022-10-17T16:19:16.237Z,102184.19
2022-10-17T16:21:42.979Z,102195.28
2022-10-17T16:24:12.272Z,102197.28
2022-10-17T16:26:40.036Z,102201.03
2022-10-17T16:29:06.850Z,102204.78
2022-10-17T16:31:35.996Z,102196.72
2022-10-17T16:34:06.502Z,102197.03
2022-10-17T16:36:33.727Z,102197.19
2022-10-17T16:39:00.619Z,102202.66
2022-10-17T16:41:36.935Z,102208.25
2022-10-17T16:44:13.159Z,102212.16
2022-10-17T16:46:39.694Z,102210.44
2022-10-17T16:49:06.577Z,102215.19
2022-10-17T16:51:36.314Z,102211.72
2022-10-17T16:54:05.847Z,102214.72
2022-10-17T16:56:32.904Z,102214.00
2022-10-17T16:59:00.695Z,102223.38
2022-10-17T17:01:29.249Z,102219.94
2022-10-17T17:03:58.362Z,102217.34
2022-10-17T17:06:27.499Z,102224.81
2022-10-17T17:08:55.146Z,102232.31
2022-10-17T17:11:24.470Z,102232.44
2022-10-17T17:13:59.947Z,102237.34
2022-10-17T17:16:28.034Z,102233.19
2022-10-17T17:19:00.591Z,102231.75
2022-10-17T17:21:27.882Z,102233.75
2022-10-17T17:24:00.827Z,102238.63
2022-10-17T17:26:31.279Z,102237.75
2022-10-17T17:28:59.982Z,102239.06
2022-10-17T17:31:30.689Z,102238.63
2022-10-17T17:34:02.567Z,102237.91
2022-10-17T17:36:31.793Z,102234.44
2022-10-17T17:39:01.423Z,102247.53
2022-10-17T17:41:28.788Z,102250.56
2022-10-17T17:44:04.630Z,102257.03
2022-10-17T17:46:32.810Z,102261.63
2022-10-17T17:48:59.944Z,102261.75
2022-10-17T17:51:29.507Z,102261.75
2022-10-17T17:54:00.395Z,102262.06
2022-10-17T17:56:28.819Z,102267.66
2022-10-17T17:59:00.293Z,102271.53
2022-10-17T18:01:30.134Z,102264.34
2022-10-17T18:04:00.707Z,102276.28
2022-10-17T18:06:27.883Z,102273.81
2022-10-17T18:08:58.455Z,102287.63
2022-10-17T18:11:26.194Z,102287.63
2022-10-17T18:14:02.754Z,102290.63
2022-10-17T18:16:30.958Z,102288.00
2022-10-17T18:19:02.618Z,102292.75
2022-10-17T18:21:32.533Z,102282.81
2022-10-17T18:24:01.201Z,102284.69
2022-10-17T18:26:28.251Z,102286.69
2022-10-17T18:28:54.911Z,102291.16
2022-10-17T18:31:28.614Z,102294.03
2022-10-17T18:34:00.171Z,102294.03
2022-10-17T18:36:28.009Z,102293.16
2022-10-17T18:38:55.470Z,102296.91
2022-10-17T18:41:24.610Z,102300.63
2022-10-17T18:44:04.889Z,102309.09
2022-10-17T18:46:40.432Z,102300.91
2022-10-17T18:49:12.654Z,102309.09
2022-10-17T18:51:40.371Z,102311.84
2022-10-17T18:54:20.322Z,102313.84
2022-10-17T18:56:51.052Z,102312.13
2022-10-17T18:59:18.545Z,102324.03
2022-10-17T19:01:45.536Z,102326.19
2022-10-17T19:04:16.342Z,102321.00
2022-10-17T19:06:43.729Z,102314.94
2022-10-17T19:09:14.549Z,102323.28
2022-10-17T19:11:42.148Z,102313.34
2022-10-17T19:14:13.586Z,102317.09
2022-10-17T19:16:46.588Z,102321.97
2022-10-17T19:19:19.129Z,102317.50
2022-10-17T19:21:46.575Z,102318.38
2022-10-17T19:24:20.635Z,102316.63
2022-10-17T19:26:50.290Z,102317.50
2022-10-17T19:29:18.186Z,102322.09
2022-10-17T19:31:45.654Z,102318.50
2022-10-17T19:34:17.708Z,102316.38
2022-10-17T19:36:45.062Z,102315.50
2022-10-17T19:39:17.134Z,102326.69
2022-10-17T19:41:45.392Z,102328.56
2022-10-17T19:44:14.418Z,102324.09
2022-10-17T19:46:40.897Z,102323.25
2022-10-17T19:49:07.564Z,102317.66
2022-10-17T19:51:34.292Z,102322.09
2022-10-17T19:54:03.083Z,102320.22
2022-10-17T19:56:32.803Z,102318.50
2022-10-17T19:58:59.599Z,102326.69
2022-10-17T20:01:32.035Z,102327.56
2022-10-17T20:04:02.086Z,102336.59
2022-10-17T20:06:28.664Z,102325.81
2022-10-17T20:08:55.485Z,102335.75
2022-10-17T20:11:24.540Z,102340.34
2022-10-17T20:13:58.295Z,102345.78
2022-10-17T20:16:27.944Z,102332.16
2022-10-17T20:18:56.567Z,102346.53
2022-10-17T20:21:27.315Z,102341.06
2022-10-17T20:23:59.292Z,102348.38
2022-10-17T20:26:42.593Z,102342.94
2022-10-17T20:29:14.475Z,102339.34
2022-10-17T20:31:43.560Z,102340.34
2022-10-17T20:34:15.909Z,102344.19
2022-10-17T20:36:43.194Z,102343.34
2022-10-17T20:39:12.060Z,102349.81
2022-10-17T20:41:38.520Z,102351.53
2022-10-17T20:44:08.998Z,102355.41
2022-10-17T20:46:37.831Z,102364.44
2022-10-17T20:49:07.539Z,102366.31
2022-10-17T20:51:35.049Z,102365.41
2022-10-17T20:54:03.491Z,102376.31
2022-10-17T20:56:32.598Z,102382.78
2022-10-17T20:59:01.965Z,102383.78
2022-10-17T21:01:30.181Z,102377.59
2022-10-17T21:04:21.451Z,102381.31
2022-10-17T21:06:48.334Z,102385.06
2022-10-17T21:09:15.050Z,102387.91
2022-10-17T21:11:43.039Z,102390.78
2022-10-17T21:14:16.667Z,102389.06
2022-10-17T21:16:43.379Z,102405.56
2022-10-17T21:19:11.189Z,102397.50
2022-10-17T21:21:41.107Z,102387.59
2022-10-17T21:24:13.615Z,102391.44
2022-10-17T21:26:42.418Z,102383.41
2022-10-17T21:29:10.225Z,102390.84
2022-10-17T21:31:37.913Z,102385.53
2022-10-17T21:34:08.123Z,102385.81
2022-10-17T21:36:35.001Z,102389.53
2022-10-17T21:39:01.648Z,102394.13
2022-10-17T21:41:29.631Z,102397.84
2022-10-17T21:44:06.516Z,102399.84
2022-10-17T21:46:33.957Z,102400.84
2022-10-17T21:49:00.658Z,102408.25
2022-10-17T21:51:27.532Z,102405.66
2022-10-17T21:54:05.762Z,102409.53
2022-10-17T21:56:34.630Z,102400.75
2022-10-17T21:59:01.296Z,102407.31
2022-10-17T22:01:30.303Z,102408.44
2022-10-17T22:04:04.989Z,102417.03
2022-10-17T22:06:40.251Z,102420.75
2022-10-17T22:09:22.823Z,102423.75
2022-10-17T22:11:52.125Z,102422.28
2022-10-17T22:14:25.936Z,102414.34
2022-10-17T22:16:52.483Z,102418.34
2022-10-17T22:19:22.096Z,102425.78
2022-10-17T22:21:49.154Z,102423.06
2022-10-17T22:26:48.457Z,102422.59
2022-10-17T22:29:15.033Z,102426.44
2022-10-17T22:31:41.666Z,102430.28
2022-10-17T22:34:13.661Z,102439.47
2022-10-17T22:36:40.366Z,102447.75
2022-10-17T22:39:07.241Z,102441.69
2022-10-17T22:41:33.840Z,102440.19
2022-10-17T22:44:02.106Z,102435.88
2022-10-17T22:46:28.683Z,102441.31
2022-10-17T22:48:55.229Z,102443.03
2022-10-17T22:51:21.834Z,102430.41
2022-10-17T22:53:48.355Z,102437.84
2022-10-17T22:56:17.459Z,102447.03
2022-10-17T22:58:44.301Z,102451.88
2022-10-17T23:01:15.522Z,102456.69
2022-10-17T23:03:42.127Z,102452.38
2022-10-17T23:06:09.706Z,102445.06
2022-10-17T23:08:36.515Z,102447.78
2022-10-17T23:11:03.115Z,102451.25
2022-10-17T23:13:29.586Z,102454.84
2022-10-17T23:15:57.889Z,102447.66
2022-10-17T23:18:25.739Z,102448.53
2022-10-17T23:20:53.166Z,102447.78
2022-10-17T23:23:20.448Z,102449.66
2022-10-17T23:25:49.421Z,102448.03
2022-10-17T23:28:16.796Z,102452.84
2022-10-17T23:30:43.633Z,102443.19
2022-10-17T23:33:12.785Z,102444.19
2022-10-17T23:35:39.608Z,102442.47
2022-10-17T23:38:06.139Z,102439.59
2022-10-17T23:40:32.720Z,102434.16
2022-10-17T23:42:59.180Z,102441.34
2022-10-17T23:45:27.693Z,102439.34
2022-10-17T23:47:54.219Z,102441.94
2022-10-17T23:50:20.907Z,102445.53
2022-10-17T23:52:47.366Z,102438.22
2022-10-17T23:55:15.597Z,102433.91
2022-10-17T23:57:42.065Z,102433.91
